CGF2 weather

Edmonton / Lechelt Field
Edmonton, Alberta, Canada

Public forecast

Using degrees Celsius for public forecast. Weather courtesy of forecast.io.

Closest aviation weather report (METAR) to Edmonton / Lechelt Field

Closest report is Edmonton (CFB Namao) Heliport, 18.3 nm (33.9 km) WNW. Retrieved 2020/08/03 11:00 UTC (59 minutes ago):

CYED 031100Z AUTO 15007KT 9SM CLR 19/11 A2980 RMK SLP086

Closest aviation forecast (TAF) to Edmonton / Lechelt Field

Forecast is more than 12 hours old.

Closest forecast is Edmonton (CFB Namao) Heliport, 18.3 nm (33.9 km) WNW. Retrieved 2020-08-01 00:33 UTC (2 days ago):

TAF TAF CYED 312330Z 0100/0112 13010KT P6SM SCT070 RMK FCST BASED ON AUTO OBS NXT FCST BY 010600Z